Terminal Aerodrome Forecast
Issued by NWS

Home | Current Version | Previous Version | Text Only | Print | Product List | Glossary On
Versions: 1 2 3 4 5 6 7 8 9 10 11 12 13
000
FTUS43 KGRR 180500
TAFAZO
TAF
KAZO 180540Z 1806/1906 34004KT P6SM BKN090
     FM180800 32003KT P6SM OVC040
     FM181000 33004KT P6SM VCSH OVC025
     FM181300 34008KT P6SM OVC035
     FM181600 33012KT P6SM SCT040=

USA.gov is the U.S. government's official web portal to all federal, state and local government web resources and services.